Oklahoma City, OK (73146)

12:08 PM CDT on September 20, 2014 (GMT -0500)
Heritage Hills | Change Station
CLOSE
Current Station
Personal Weather Station
Location: Oklahoma City, OK
Elevation: 1280 ft
Nearby Weather Stations

Elev 1280 ft 35.48 °N, 97.52 °W | Updated 35 seconds ago

Mostly Cloudy
Mostly Cloudy
83.9 °F
Feels Like 89 °F
N
0.0
Wind Variable Wind from SE
Gusts 8.0 mph

Today
High -- | Low -- °F
--% Chance of Precip.
Yesterday
High -- | Low -- °F
Precip. -- in
7:16 AM 7:29 PM
Waning Crescent, 11% visible
Pressure 30.00 in
Visibility 8.0 miles
Clouds Few 2500 ft
Mostly Cloudy 3200 ft
Mostly Cloudy 4600 ft
Heat Index 89 °F
Dew Point 71 °F
Humidity 65%
Rainfall 0.00 in
Snow Depth Not available.
UV 4 out of 12
Pollen 9.80 out of 12
Ozone Good
PM2.5 Moderate
Flu Activity Not available.
METAR KPWA 201653Z 21005KT 8SM FEW025 BKN032 BKN046 27/21 A3004 RMK AO2 SLP158 T02670206

More Conditions Fewer Conditions

Pressure 30.00 in
Visibility 8.0 miles
Clouds Few 2500 ft
Mostly Cloudy 3200 ft
Mostly Cloudy 4600 ft
Heat Index 89 °F
Dew Point 71 °F
Humidity 65%
Rainfall 0.00 in
Snow Depth Not available.
UV 4 out of 12
Pollen 9.80 out of 12
Ozone Good
PM2.5 Moderate
Flu Activity Not available.
METAR KPWA 201653Z 21005KT 8SM FEW025 BKN032 BKN046 27/21 A3004 RMK AO2 SLP158 T02670206

More Conditions Fewer Conditions

10-Day Weather Forecast

Almanac

Astronomy

Sep. 20, 2014 Rise Set
Actual Time 7:16 AM CDT 7:29 PM CDT
Civil Twilight 6:51 AM CDT 7:55 PM CDT
Nautical Twilight 6:21 AM CDT 8:24 PM CDT
Astronomical Twilight 5:51 AM CDT 8:55 PM CDT
Moon 4:02 AM CDT 5:29 PM CDT
Length of Visible Light 13h 04m
Length of Day
12h 13m
Tomorrow will be 2m 12s shorter.
Waning Crescent, 11% of the Moon is Illuminated
Today
Waning Crescent
Sep 24
New
Oct 1
First Quarter
Oct 8
Full
Oct 15
Last Quarter

Today's Extremes

State Highs State Lows

Community

WunderPhotos

Upload Photos

1,754,906 photos uploaded!

Nearby

Air Quality

  Air Quality AQ Index Pollutant
Yesterday Good
PM2.5
Yesterday Good
OZONE
Current Moderate
PM2.5
Current Good
OZONE
Saturday Moderate
PM2.5
Saturday Good
OZONE
Sunday Good
PM2.5
Sunday Good
OZONE
Monday Good
OZONE
Monday Good
PM2.5
Tuesday Good
OZONE
Tuesday Good
PM2.5
Wednesday Good
OZONE
Wednesday Good
PM2.5

Snow Depth

Station Depth Elevation
No new snow has been reported.

Earthquake Activity

City Distance Mag. Time & Date
Medford, Oklahoma 92 miles 3.2 2:10 AM CDT
2014-09-20
Luther, Oklahoma 26 miles 2.7 4:47 PM CDT
2014-09-19
Guthrie, Oklahoma 23 miles 3.6 12:23 PM CDT
2014-09-19
Jones, Oklahoma 15 miles 2.8 1:13 AM CDT
2014-09-19
Minimum magnitude displayed is 2.5.

Coastal Water Temperatures

Place Temperature
No Stations Reporting

Nearby Weather Stations